sensor_id;sensor_type;location;lat;lon;timestamp;pressure;altitude;pressure_sealevel;temperature;humidity
59194;BME280;44967;48.598;15.650;2023-03-23T00:01:54;97837.91;;;6.95;67.28
59194;BME280;44967;48.598;15.650;2023-03-23T00:04:21;97833.81;;;6.84;67.85
59194;BME280;44967;48.598;15.650;2023-03-23T00:06:46;97832.03;;;6.84;67.43
59194;BME280;44967;48.598;15.650;2023-03-23T00:09:13;97835.53;;;6.85;67.17
59194;BME280;44967;48.598;15.650;2023-03-23T00:11:41;97839.22;;;6.78;67.99
59194;BME280;44967;48.598;15.650;2023-03-23T00:14:09;97838.34;;;6.76;68.09
59194;BME280;44967;48.598;15.650;2023-03-23T00:16:40;97834.16;;;6.69;68.13
59194;BME280;44967;48.598;15.650;2023-03-23T00:19:10;97831.59;;;6.67;68.96
59194;BME280;44967;48.598;15.650;2023-03-23T00:21:39;97826.28;;;6.69;68.65
59194;BME280;44967;48.598;15.650;2023-03-23T00:24:08;97824.44;;;6.72;67.96
59194;BME280;44967;48.598;15.650;2023-03-23T00:26:36;97827.25;;;6.64;68.69
59194;BME280;44967;48.598;15.650;2023-03-23T00:29:16;97822.84;;;6.67;67.58
59194;BME280;44967;48.598;15.650;2023-03-23T00:31:43;97832.66;;;6.58;68.23
59194;BME280;44967;48.598;15.650;2023-03-23T00:34:19;97830.19;;;6.51;68.85
59194;BME280;44967;48.598;15.650;2023-03-23T00:36:49;97832.66;;;6.58;68.63
59194;BME280;44967;48.598;15.650;2023-03-23T00:39:16;97823.97;;;6.55;68.17
59194;BME280;44967;48.598;15.650;2023-03-23T00:41:43;97825.59;;;6.60;68.35
59194;BME280;44967;48.598;15.650;2023-03-23T00:44:10;97824.09;;;6.49;68.22
59194;BME280;44967;48.598;15.650;2023-03-23T00:46:46;97822.34;;;6.49;68.99
59194;BME280;44967;48.598;15.650;2023-03-23T00:49:19;97822.78;;;6.28;69.86
59194;BME280;44967;48.598;15.650;2023-03-23T00:51:45;97820.69;;;6.45;69.12
59194;BME280;44967;48.598;15.650;2023-03-23T00:54:12;97818.91;;;6.47;69.03
59194;BME280;44967;48.598;15.650;2023-03-23T00:56:38;97827.59;;;6.48;68.07
59194;BME280;44967;48.598;15.650;2023-03-23T00:59:07;97814.78;;;6.36;69.24
59194;BME280;44967;48.598;15.650;2023-03-23T01:01:34;97816.38;;;6.41;69.32
59194;BME280;44967;48.598;15.650;2023-03-23T01:04:00;97816.28;;;6.47;68.55
59194;BME280;44967;48.598;15.650;2023-03-23T01:06:27;97810.00;;;6.53;68.38
59194;BME280;44967;48.598;15.650;2023-03-23T01:08:54;97813.50;;;6.53;68.61
59194;BME280;44967;48.598;15.650;2023-03-23T01:11:20;97807.59;;;6.44;68.68
59194;BME280;44967;48.598;15.650;2023-03-23T01:13:46;97805.13;;;6.36;68.54
59194;BME280;44967;48.598;15.650;2023-03-23T01:16:12;97803.31;;;6.40;68.47
59194;BME280;44967;48.598;15.650;2023-03-23T01:18:39;97804.16;;;6.40;68.94
59194;BME280;44967;48.598;15.650;2023-03-23T01:21:10;97808.84;;;6.28;69.54
59194;BME280;44967;48.598;15.650;2023-03-23T01:23:37;97806.47;;;6.15;69.69
59194;BME280;44967;48.598;15.650;2023-03-23T01:26:18;97798.63;;;6.14;69.56
59194;BME280;44967;48.598;15.650;2023-03-23T01:28:43;97799.56;;;6.10;70.04
59194;BME280;44967;48.598;15.650;2023-03-23T01:31:15;97800.41;;;6.12;69.95
59194;BME280;44967;48.598;15.650;2023-03-23T01:33:42;97800.22;;;6.21;70.41
59194;BME280;44967;48.598;15.650;2023-03-23T01:36:14;97795.03;;;6.18;69.80
59194;BME280;44967;48.598;15.650;2023-03-23T01:38:42;97784.78;;;6.06;69.47
59194;BME280;44967;48.598;15.650;2023-03-23T01:41:08;97791.06;;;6.00;69.72
59194;BME280;44967;48.598;15.650;2023-03-23T01:43:34;97783.19;;;5.99;70.19
59194;BME280;44967;48.598;15.650;2023-03-23T01:46:00;97789.34;;;5.98;70.72
59194;BME280;44967;48.598;15.650;2023-03-23T01:48:32;97789.06;;;6.11;70.86
59194;BME280;44967;48.598;15.650;2023-03-23T01:51:06;97788.13;;;6.14;69.88
59194;BME280;44967;48.598;15.650;2023-03-23T01:53:46;97783.19;;;5.99;70.68
59194;BME280;44967;48.598;15.650;2023-03-23T01:56:14;97787.44;;;6.04;70.38
59194;BME280;44967;48.598;15.650;2023-03-23T01:58:41;97782.84;;;6.15;70.49
59194;BME280;44967;48.598;15.650;2023-03-23T02:01:10;97788.03;;;6.19;70.44
59194;BME280;44967;48.598;15.650;2023-03-23T02:03:39;97777.28;;;6.29;69.85
59194;BME280;44967;48.598;15.650;2023-03-23T02:06:07;97776.56;;;6.24;69.30
59194;BME280;44967;48.598;15.650;2023-03-23T02:08:33;97780.09;;;6.22;69.23
59194;BME280;44967;48.598;15.650;2023-03-23T02:10:59;97776.84;;;6.10;70.72
59194;BME280;44967;48.598;15.650;2023-03-23T02:13:27;97779.44;;;6.12;70.85
59194;BME280;44967;48.598;15.650;2023-03-23T02:16:21;97779.47;;;6.09;70.56
59194;BME280;44967;48.598;15.650;2023-03-23T02:19:05;97780.16;;;6.19;70.15
59194;BME280;44967;48.598;15.650;2023-03-23T02:35:34;97777.06;;;6.00;70.99
59194;BME280;44967;48.598;15.650;2023-03-23T02:38:06;97769.69;;;5.74;71.80
59194;BME280;44967;48.598;15.650;2023-03-23T02:40:39;97777.75;;;5.63;72.52
59194;BME280;44967;48.598;15.650;2023-03-23T02:43:12;97769.75;;;5.69;72.05
59194;BME280;44967;48.598;15.650;2023-03-23T02:45:40;97767.28;;;5.62;72.45
59194;BME280;44967;48.598;15.650;2023-03-23T02:48:08;97780.16;;;5.76;72.31
59194;BME280;44967;48.598;15.650;2023-03-23T02:50:36;97781.19;;;5.67;72.28
59194;BME280;44967;48.598;15.650;2023-03-23T02:53:07;97782.13;;;5.63;72.40
59194;BME280;44967;48.598;15.650;2023-03-23T02:55:36;97776.00;;;5.64;72.45
59194;BME280;44967;48.598;15.650;2023-03-23T02:58:08;97778.47;;;5.72;73.03
59194;BME280;44967;48.598;15.650;2023-03-23T03:00:35;97781.00;;;5.76;72.22
59194;BME280;44967;48.598;15.650;2023-03-23T03:03:01;97768.53;;;5.89;71.65
59194;BME280;44967;48.598;15.650;2023-03-23T03:06:48;97771.28;;;5.81;72.91
59194;BME280;44967;48.598;15.650;2023-03-23T03:08:50;97777.63;;;5.71;72.34
59194;BME280;44967;48.598;15.650;2023-03-23T03:11:19;97782.06;;;5.67;72.66
59194;BME280;44967;48.598;15.650;2023-03-23T03:13:53;97784.50;;;5.77;72.58
59194;BME280;44967;48.598;15.650;2023-03-23T03:16:40;97778.34;;;5.78;72.17
59194;BME280;44967;48.598;15.650;2023-03-23T03:21:36;97775.94;;;5.67;72.18
59194;BME280;44967;48.598;15.650;2023-03-23T03:24:04;97772.38;;;5.69;72.77
59194;BME280;44967;48.598;15.650;2023-03-23T03:26:33;97771.34;;;5.78;72.29
59194;BME280;44967;48.598;15.650;2023-03-23T03:29:00;97771.25;;;5.83;71.92
59194;BME280;44967;48.598;15.650;2023-03-23T03:31:32;97763.38;;;5.84;71.73
59194;BME280;44967;48.598;15.650;2023-03-23T03:34:01;97771.25;;;5.83;71.89
59194;BME280;44967;48.598;15.650;2023-03-23T03:36:29;97766.94;;;5.80;71.67
59194;BME280;44967;48.598;15.650;2023-03-23T03:39:04;97767.28;;;5.62;72.58
59194;BME280;44967;48.598;15.650;2023-03-23T03:41:34;97765.38;;;5.70;72.36
59194;BME280;44967;48.598;15.650;2023-03-23T03:44:01;97765.38;;;5.72;72.25
59194;BME280;44967;48.598;15.650;2023-03-23T03:46:27;97758.63;;;5.60;72.32
59194;BME280;44967;48.598;15.650;2023-03-23T03:48:55;97757.75;;;5.59;72.22
59194;BME280;44967;48.598;15.650;2023-03-23T03:51:26;97769.44;;;5.42;72.65
59194;BME280;44967;48.598;15.650;2023-03-23T03:53:55;97771.66;;;5.15;74.41
59194;BME280;44967;48.598;15.650;2023-03-23T03:56:26;97773.41;;;5.15;73.70
59194;BME280;44967;48.598;15.650;2023-03-23T03:58:52;97770.59;;;5.27;74.06
59194;BME280;44967;48.598;15.650;2023-03-23T04:01:22;97777.44;;;5.34;73.78
59194;BME280;44967;48.598;15.650;2023-03-23T04:03:50;97778.19;;;5.41;73.16
59194;BME280;44967;48.598;15.650;2023-03-23T04:06:17;97772.97;;;5.41;72.88
59194;BME280;44967;48.598;15.650;2023-03-23T04:08:43;97775.75;;;5.32;73.46
59194;BME280;44967;48.598;15.650;2023-03-23T04:11:12;97780.97;;;5.33;73.87
59194;BME280;44967;48.598;15.650;2023-03-23T04:13:39;97775.66;;;5.36;73.54
59194;BME280;44967;48.598;15.650;2023-03-23T04:16:05;97779.16;;;5.35;73.50
59194;BME280;44967;48.598;15.650;2023-03-23T04:18:32;97782.63;;;5.37;73.58
59194;BME280;44967;48.598;15.650;2023-03-23T04:21:00;97780.38;;;5.16;73.63
59194;BME280;44967;48.598;15.650;2023-03-23T04:23:28;97777.72;;;5.19;74.34
59194;BME280;44967;48.598;15.650;2023-03-23T04:25:56;97771.50;;;5.25;73.77
59194;BME280;44967;48.598;15.650;2023-03-23T04:28:25;97770.56;;;5.29;73.63
59194;BME280;44967;48.598;15.650;2023-03-23T04:30:51;97773.06;;;5.35;73.69
59194;BME280;44967;48.598;15.650;2023-03-23T04:33:25;97775.66;;;5.36;72.99
59194;BME280;44967;48.598;15.650;2023-03-23T04:35:53;97772.31;;;5.28;73.52
59194;BME280;44967;48.598;15.650;2023-03-23T04:38:20;97768.75;;;5.31;73.78
59194;BME280;44967;48.598;15.650;2023-03-23T04:40:48;97774.81;;;5.34;73.74
59194;BME280;44967;48.598;15.650;2023-03-23T04:43:17;97762.59;;;5.35;73.50
59194;BME280;44967;48.598;15.650;2023-03-23T04:45:52;97768.63;;;5.38;73.57
59194;BME280;44967;48.598;15.650;2023-03-23T04:48:17;97775.59;;;5.41;73.07
59194;BME280;44967;48.598;15.650;2023-03-23T04:50:45;97774.84;;;5.33;73.51
59194;BME280;44967;48.598;15.650;2023-03-23T04:53:13;97776.63;;;5.31;73.81
59194;BME280;44967;48.598;15.650;2023-03-23T04:55:39;97774.63;;;5.45;73.61
59194;BME280;44967;48.598;15.650;2023-03-23T04:58:08;97774.78;;;5.37;72.90
59194;BME280;44967;48.598;15.650;2023-03-23T05:00:34;97772.91;;;5.42;73.32
59194;BME280;44967;48.598;15.650;2023-03-23T05:03:00;97777.28;;;5.43;73.13
59194;BME280;44967;48.598;15.650;2023-03-23T05:05:27;97784.47;;;5.32;73.37
59194;BME280;44967;48.598;15.650;2023-03-23T05:07:55;97787.88;;;5.37;72.85
59194;BME280;44967;48.598;15.650;2023-03-23T05:10:21;97787.03;;;5.35;73.35
59194;BME280;44967;48.598;15.650;2023-03-23T05:12:47;97792.25;;;5.37;73.45
59194;BME280;44967;48.598;15.650;2023-03-23T05:15:15;97793.22;;;5.31;73.91
59194;BME280;44967;48.598;15.650;2023-03-23T05:17:41;97791.53;;;5.27;74.20
59194;BME280;44967;48.598;15.650;2023-03-23T05:20:11;97794.13;;;5.29;73.56
59194;BME280;44967;48.598;15.650;2023-03-23T05:22:38;97787.97;;;5.33;73.87
59194;BME280;44967;48.598;15.650;2023-03-23T05:25:05;97801.72;;;5.42;73.82
59194;BME280;44967;48.598;15.650;2023-03-23T05:27:35;97801.59;;;5.50;73.65
59194;BME280;44967;48.598;15.650;2023-03-23T05:30:01;97804.34;;;5.44;72.98
59194;BME280;44967;48.598;15.650;2023-03-23T05:32:27;97804.25;;;5.48;73.68
59194;BME280;44967;48.598;15.650;2023-03-23T05:34:55;97801.50;;;5.54;72.66
59194;BME280;44967;48.598;15.650;2023-03-23T05:37:22;97812.88;;;5.55;72.93
59194;BME280;44967;48.598;15.650;2023-03-23T05:39:48;97810.25;;;5.53;73.27
59194;BME280;44967;48.598;15.650;2023-03-23T05:42:14;97819.94;;;5.50;73.38
59194;BME280;44967;48.598;15.650;2023-03-23T05:44:40;97817.25;;;5.54;73.75
59194;BME280;44967;48.598;15.650;2023-03-23T05:47:05;97819.63;;;5.66;73.34
59194;BME280;44967;48.598;15.650;2023-03-23T05:49:31;97825.72;;;5.68;72.83
59194;BME280;44967;48.598;15.650;2023-03-23T05:51:56;97816.13;;;5.67;72.90
59194;BME280;44967;48.598;15.650;2023-03-23T05:54:22;97818.63;;;5.74;72.25
59194;BME280;44967;48.598;15.650;2023-03-23T05:56:48;97816.16;;;5.66;72.88
59194;BME280;44967;48.598;15.650;2023-03-23T05:59:14;97822.00;;;5.80;73.09
59194;BME280;44967;48.598;15.650;2023-03-23T06:01:40;97826.53;;;5.70;73.55
59194;BME280;44967;48.598;15.650;2023-03-23T06:04:06;97833.44;;;5.76;73.82
59194;BME280;44967;48.598;15.650;2023-03-23T06:06:32;97833.25;;;5.88;73.20
59194;BME280;44967;48.598;15.650;2023-03-23T06:08:58;97840.91;;;5.97;73.36
59194;BME280;44967;48.598;15.650;2023-03-23T06:11:24;97844.41;;;5.98;72.90
59194;BME280;44967;48.598;15.650;2023-03-23T06:13:52;97841.94;;;5.90;73.66
59194;BME280;44967;48.598;15.650;2023-03-23T06:16:18;97841.72;;;6.01;73.25
59194;BME280;44967;48.598;15.650;2023-03-23T06:18:44;97845.13;;;6.06;73.12
59194;BME280;44967;48.598;15.650;2023-03-23T06:21:10;97840.72;;;6.08;73.15
59194;BME280;44967;48.598;15.650;2023-03-23T06:23:37;97851.16;;;6.11;73.32
59194;BME280;44967;48.598;15.650;2023-03-23T06:26:06;97848.47;;;6.12;73.13
59194;BME280;44967;48.598;15.650;2023-03-23T06:28:32;97850.81;;;6.26;72.81
59194;BME280;44967;48.598;15.650;2023-03-23T06:31:03;97835.25;;;6.17;72.90
59194;BME280;44967;48.598;15.650;2023-03-23T06:33:35;97842.78;;;6.34;72.33
59194;BME280;44967;48.598;15.650;2023-03-23T06:36:02;97845.25;;;6.43;71.77
59194;BME280;44967;48.598;15.650;2023-03-23T06:38:27;97843.56;;;6.39;72.61
59194;BME280;44967;48.598;15.650;2023-03-23T06:40:53;97849.59;;;6.44;72.26
59194;BME280;44967;48.598;15.650;2023-03-23T06:43:20;97860.75;;;6.53;72.21
59194;BME280;44967;48.598;15.650;2023-03-23T06:45:46;97851.97;;;6.54;72.35
59194;BME280;44967;48.598;15.650;2023-03-23T06:48:11;97855.66;;;6.47;71.99
59194;BME280;44967;48.598;15.650;2023-03-23T06:50:37;97862.66;;;6.45;72.23
59194;BME280;44967;48.598;15.650;2023-03-23T06:53:03;97860.84;;;6.49;72.23
59194;BME280;44967;48.598;15.650;2023-03-23T06:55:29;97852.88;;;6.53;71.74
59194;BME280;44967;48.598;15.650;2023-03-23T06:57:55;97852.69;;;6.62;72.08
59194;BME280;44967;48.598;15.650;2023-03-23T07:00:20;97858.81;;;6.61;71.89
59194;BME280;44967;48.598;15.650;2023-03-23T07:02:46;97864.28;;;6.91;73.45
59194;BME280;44967;48.598;15.650;2023-03-23T07:05:13;97873.00;;;6.91;72.28
59194;BME280;44967;48.598;15.650;2023-03-23T07:07:40;97883.50;;;6.93;71.15
59194;BME280;44967;48.598;15.650;2023-03-23T07:10:08;97877.47;;;6.88;71.93
59194;BME280;44967;48.598;15.650;2023-03-23T07:12:35;97871.66;;;6.75;71.25
59194;BME280;44967;48.598;15.650;2023-03-23T07:15:04;97876.09;;;6.72;71.56
59194;BME280;44967;48.598;15.650;2023-03-23T07:17:30;97870.84;;;6.72;71.64
59194;BME280;44967;48.598;15.650;2023-03-23T07:19:56;97867.22;;;6.77;72.29
59194;BME280;44967;48.598;15.650;2023-03-23T07:22:22;97868.97;;;6.77;71.59
59194;BME280;44967;48.598;15.650;2023-03-23T07:24:47;97871.34;;;6.89;71.69
59194;BME280;44967;48.598;15.650;2023-03-23T07:27:13;97854.47;;;6.99;71.05
59194;BME280;44967;48.598;15.650;2023-03-23T07:29:39;97861.31;;;7.06;71.34
59194;BME280;44967;48.598;15.650;2023-03-23T07:32:06;97870.84;;;7.10;71.13
59194;BME280;44967;48.598;15.650;2023-03-23T07:34:32;97864.53;;;7.19;70.87
59194;BME280;44967;48.598;15.650;2023-03-23T07:36:59;97865.59;;;7.45;70.31
59194;BME280;44967;48.598;15.650;2023-03-23T07:39:24;97872.09;;;7.66;69.85
59194;BME280;44967;48.598;15.650;2023-03-23T07:41:51;97861.94;;;7.85;69.75
59194;BME280;44967;48.598;15.650;2023-03-23T07:44:17;97869.09;;;8.12;68.93
59194;BME280;44967;48.598;15.650;2023-03-23T07:46:43;97859.00;;;8.28;68.25
59194;BME280;44967;48.598;15.650;2023-03-23T07:49:09;97869.00;;;8.47;68.27
59194;BME280;44967;48.598;15.650;2023-03-23T07:51:35;97871.16;;;8.63;67.75
59194;BME280;44967;48.598;15.650;2023-03-23T07:54:04;97874.75;;;8.89;66.67
59194;BME280;44967;48.598;15.650;2023-03-23T07:56:30;97870.81;;;9.03;66.11
59194;BME280;44967;48.598;15.650;2023-03-23T07:58:56;97860.06;;;9.09;66.38
59194;BME280;44967;48.598;15.650;2023-03-23T08:01:22;97856.66;;;9.07;65.78
59194;BME280;44967;48.598;15.650;2023-03-23T08:03:49;97866.31;;;9.06;66.00
59194;BME280;44967;48.598;15.650;2023-03-23T08:06:15;97865.06;;;9.18;66.29
59194;BME280;44967;48.598;15.650;2023-03-23T08:08:42;97864.63;;;9.31;64.86
59194;BME280;44967;48.598;15.650;2023-03-23T08:11:07;97867.78;;;9.42;65.10
59194;BME280;44967;48.598;15.650;2023-03-23T08:13:33;97859.66;;;9.48;65.07
59194;BME280;44967;48.598;15.650;2023-03-23T08:15:59;97859.06;;;9.67;65.76
59194;BME280;44967;48.598;15.650;2023-03-23T08:18:29;97858.72;;;9.76;64.88
59194;BME280;44967;48.598;15.650;2023-03-23T08:20:56;97855.00;;;9.83;64.53
59194;BME280;44967;48.598;15.650;2023-03-23T08:23:21;97853.84;;;9.90;64.66
59194;BME280;44967;48.598;15.650;2023-03-23T08:25:48;97850.66;;;10.05;64.73
59194;BME280;44967;48.598;15.650;2023-03-23T08:28:14;97847.50;;;10.20;64.16
59194;BME280;44967;48.598;15.650;2023-03-23T08:30:40;97838.28;;;10.32;63.75
59194;BME280;44967;48.598;15.650;2023-03-23T08:33:07;97848.19;;;10.50;63.52
59194;BME280;44967;48.598;15.650;2023-03-23T08:35:34;97849.94;;;10.73;63.22
59194;BME280;44967;48.598;15.650;2023-03-23T08:37:59;97841.00;;;10.99;61.80
59194;BME280;44967;48.598;15.650;2023-03-23T08:40:25;97851.09;;;11.11;61.59
59194;BME280;44967;48.598;15.650;2023-03-23T08:42:53;97842.75;;;11.21;61.84
59194;BME280;44967;48.598;15.650;2023-03-23T08:45:21;97844.69;;;11.38;61.35
59194;BME280;44967;48.598;15.650;2023-03-23T08:47:47;97838.91;;;11.50;61.83
59194;BME280;44967;48.598;15.650;2023-03-23T08:50:22;97838.34;;;11.64;61.70
59194;BME280;44967;48.598;15.650;2023-03-23T08:52:49;97838.31;;;11.86;60.97
59194;BME280;44967;48.598;15.650;2023-03-23T08:55:16;97837.00;;;11.96;61.02
59194;BME280;44967;48.598;15.650;2023-03-23T08:57:43;97842.09;;;12.00;61.04
59194;BME280;44967;48.598;15.650;2023-03-23T09:00:13;97839.50;;;12.19;60.28
59194;BME280;44967;48.598;15.650;2023-03-23T09:02:47;97840.97;;;12.45;59.67
59194;BME280;44967;48.598;15.650;2023-03-23T09:05:18;97843.38;;;12.69;59.12
59194;BME280;44967;48.598;15.650;2023-03-23T09:07:47;97833.22;;;12.79;58.06
59194;BME280;44967;48.598;15.650;2023-03-23T09:10:14;97835.44;;;13.07;57.36
59194;BME280;44967;48.598;15.650;2023-03-23T09:12:41;97838.84;;;13.09;57.40
59194;BME280;44967;48.598;15.650;2023-03-23T09:15:08;97833.75;;;13.04;57.95
59194;BME280;44967;48.598;15.650;2023-03-23T09:17:36;97826.28;;;13.14;57.61
59194;BME280;44967;48.598;15.650;2023-03-23T09:20:06;97830.06;;;13.27;57.29
59194;BME280;44967;48.598;15.650;2023-03-23T09:22:44;97830.16;;;13.43;56.30
59194;BME280;44967;48.598;15.650;2023-03-23T09:25:12;97821.91;;;13.66;55.99
59194;BME280;44967;48.598;15.650;2023-03-23T09:27:40;97824.56;;;13.83;55.70
59194;BME280;44967;48.598;15.650;2023-03-23T09:30:09;97827.06;;;14.03;55.77
59194;BME280;44967;48.598;15.650;2023-03-23T09:32:37;97831.63;;;14.34;53.96
59194;BME280;44967;48.598;15.650;2023-03-23T09:35:06;97828.13;;;14.34;53.52
59194;BME280;44967;48.598;15.650;2023-03-23T09:37:33;97824.88;;;14.61;53.06
59194;BME280;44967;48.598;15.650;2023-03-23T09:40:05;97819.84;;;14.88;52.08
59194;BME280;44967;48.598;15.650;2023-03-23T09:45:43;97806.09;;;15.27;51.02
59194;BME280;44967;48.598;15.650;2023-03-23T09:48:33;97812.47;;;15.40;49.60
59194;BME280;44967;48.598;15.650;2023-03-23T09:51:14;97816.31;;;15.50;49.00
59194;BME280;44967;48.598;15.650;2023-03-23T09:53:46;97808.88;;;16.01;48.11
59194;BME280;44967;48.598;15.650;2023-03-23T09:56:15;97806.00;;;16.76;46.42
59194;BME280;44967;48.598;15.650;2023-03-23T09:58:53;97801.59;;;18.36;42.52
59194;BME280;44967;48.598;15.650;2023-03-23T10:01:51;97791.63;;;20.07;38.93
59194;BME280;44967;48.598;15.650;2023-03-23T10:04:28;97795.00;;;21.98;34.63
59194;BME280;44967;48.598;15.650;2023-03-23T10:07:17;97781.41;;;23.32;32.06
59194;BME280;44967;48.598;15.650;2023-03-23T10:09:45;97784.06;;;23.82;31.36
59194;BME280;44967;48.598;15.650;2023-03-23T10:15:25;97771.66;;;24.93;29.44
59194;BME280;44967;48.598;15.650;2023-03-23T10:18:03;97764.47;;;24.74;28.96
59194;BME280;44967;48.598;15.650;2023-03-23T10:23:24;97764.16;;;24.02;29.91
59194;BME280;44967;48.598;15.650;2023-03-23T10:28:48;97764.47;;;22.50;32.66
59194;BME280;44967;48.598;15.650;2023-03-23T10:31:38;97759.31;;;23.48;31.14
59194;BME280;44967;48.598;15.650;2023-03-23T10:34:24;97757.38;;;22.80;32.08
59194;BME280;44967;48.598;15.650;2023-03-23T10:37:32;97758.56;;;22.87;31.67
59194;BME280;44967;48.598;15.650;2023-03-23T10:40:03;97756.09;;;22.53;32.14
59194;BME280;44967;48.598;15.650;2023-03-23T10:42:35;97756.09;;;23.14;31.37
59194;BME280;44967;48.598;15.650;2023-03-23T10:45:30;97753.66;;;23.80;29.66
59194;BME280;44967;48.598;15.650;2023-03-23T10:50:35;97757.22;;;23.90;29.43
59194;BME280;44967;48.598;15.650;2023-03-23T10:53:12;97755.06;;;24.13;29.12
59194;BME280;44967;48.598;15.650;2023-03-23T10:55:41;97746.59;;;22.80;31.23
59194;BME280;44967;48.598;15.650;2023-03-23T10:58:11;97746.81;;;23.47;30.51
59194;BME280;44967;48.598;15.650;2023-03-23T11:00:45;97739.19;;;23.81;29.89
59194;BME280;44967;48.598;15.650;2023-03-23T11:05:48;97732.78;;;23.53;30.19
59194;BME280;44967;48.598;15.650;2023-03-23T11:08:26;97733.41;;;22.46;32.05
59194;BME280;44967;48.598;15.650;2023-03-23T11:13:26;97722.13;;;22.11;32.75
59194;BME280;44967;48.598;15.650;2023-03-23T11:15:54;97721.56;;;22.07;33.06
59194;BME280;44967;48.598;15.650;2023-03-23T11:18:26;97719.56;;;22.61;31.79
59194;BME280;44967;48.598;15.650;2023-03-23T11:20:55;97717.72;;;22.61;32.33
59194;BME280;44967;48.598;15.650;2023-03-23T11:23:36;97716.75;;;22.62;32.33
59194;BME280;44967;48.598;15.650;2023-03-23T11:29:03;97730.94;;;21.29;34.87
59194;BME280;44967;48.598;15.650;2023-03-23T11:31:34;97725.63;;;20.73;35.82
59194;BME280;44967;48.598;15.650;2023-03-23T11:34:08;97722.34;;;20.69;36.24
59194;BME280;44967;48.598;15.650;2023-03-23T11:36:38;97724.53;;;20.64;36.99
59194;BME280;44967;48.598;15.650;2023-03-23T11:42:16;97727.91;;;21.54;35.58
59194;BME280;44967;48.598;15.650;2023-03-23T11:44:43;97713.34;;;21.56;35.78
59194;BME280;44967;48.598;15.650;2023-03-23T11:47:38;97724.53;;;21.41;36.20
59194;BME280;44967;48.598;15.650;2023-03-23T11:52:46;97709.72;;;20.92;37.03
59194;BME280;44967;48.598;15.650;2023-03-23T11:55:23;97703.28;;;20.73;37.55
59194;BME280;44967;48.598;15.650;2023-03-23T11:57:51;97697.78;;;20.74;37.61
59194;BME280;44967;48.598;15.650;2023-03-23T12:00:21;97699.59;;;20.96;37.46
59194;BME280;44967;48.598;15.650;2023-03-23T12:03:25;97701.31;;;20.97;37.48
59194;BME280;44967;48.598;15.650;2023-03-23T12:06:01;97702.50;;;21.15;38.22
59194;BME280;44967;48.598;15.650;2023-03-23T12:16:47;97695.94;;;20.97;37.30
59194;BME280;44967;48.598;15.650;2023-03-23T12:20:14;97683.56;;;21.05;36.16
59194;BME280;44967;48.598;15.650;2023-03-23T12:42:27;97651.75;;;21.53;33.24
59194;BME280;44967;48.598;15.650;2023-03-23T12:50:21;97651.72;;;21.65;29.94
59194;BME280;44967;48.598;15.650;2023-03-23T12:53:10;97642.59;;;21.56;28.26
59194;BME280;44967;48.598;15.650;2023-03-23T12:55:49;97645.00;;;21.80;28.74
59194;BME280;44967;48.598;15.650;2023-03-23T12:58:19;97643.03;;;22.02;28.28
59194;BME280;44967;48.598;15.650;2023-03-23T13:00:59;97629.38;;;22.15;27.22
59194;BME280;44967;48.598;15.650;2023-03-23T13:06:19;97637.72;;;22.12;27.01
59194;BME280;44967;48.598;15.650;2023-03-23T13:09:27;97637.09;;;21.99;26.69
59194;BME280;44967;48.598;15.650;2023-03-23T13:11:45;97639.16;;;21.75;26.43
59194;BME280;44967;48.598;15.650;2023-03-23T13:17:28;97631.44;;;22.02;27.15
59194;BME280;44967;48.598;15.650;2023-03-23T13:28:01;97634.13;;;22.02;27.39
59194;BME280;44967;48.598;15.650;2023-03-23T13:30:28;97642.75;;;21.96;28.51
59194;BME280;44967;48.598;15.650;2023-03-23T13:33:05;97636.34;;;21.76;26.35
59194;BME280;44967;48.598;15.650;2023-03-23T13:35:36;97629.34;;;21.64;27.20
59194;BME280;44967;48.598;15.650;2023-03-23T13:38:15;97624.94;;;21.63;27.35
59194;BME280;44967;48.598;15.650;2023-03-23T13:40:45;97633.34;;;21.49;26.67
59194;BME280;44967;48.598;15.650;2023-03-23T13:43:11;97627.56;;;21.74;27.21
59194;BME280;44967;48.598;15.650;2023-03-23T13:45:46;97630.44;;;21.82;26.37
59194;BME280;44967;48.598;15.650;2023-03-23T13:51:21;97616.13;;;21.61;27.13
59194;BME280;44967;48.598;15.650;2023-03-23T13:53:50;97621.50;;;21.82;28.01
59194;BME280;44967;48.598;15.650;2023-03-23T13:56:18;97623.97;;;21.64;27.11
59194;BME280;44967;48.598;15.650;2023-03-23T13:58:50;97615.22;;;21.72;30.22
59194;BME280;44967;48.598;15.650;2023-03-23T14:01:34;97623.03;;;21.75;27.88
59194;BME280;44967;48.598;15.650;2023-03-23T14:04:04;97622.81;;;21.87;27.63
59194;BME280;44967;48.598;15.650;2023-03-23T14:06:34;97621.78;;;21.79;27.91
59194;BME280;44967;48.598;15.650;2023-03-23T14:09:50;97617.06;;;21.71;27.36
59194;BME280;44967;48.598;15.650;2023-03-23T14:12:03;97610.03;;;21.59;28.11
59194;BME280;44967;48.598;15.650;2023-03-23T14:14:41;97613.66;;;21.48;28.94
59194;BME280;44967;48.598;15.650;2023-03-23T14:17:17;97607.56;;;21.46;28.01
59194;BME280;44967;48.598;15.650;2023-03-23T14:19:47;97615.88;;;21.43;27.54
59194;BME280;44967;48.598;15.650;2023-03-23T14:22:23;97613.41;;;21.51;28.37
59194;BME280;44967;48.598;15.650;2023-03-23T14:24:49;97618.91;;;21.50;29.17
59194;BME280;44967;48.598;15.650;2023-03-23T14:27:19;97613.41;;;21.51;28.31
59194;BME280;44967;48.598;15.650;2023-03-23T14:29:46;97633.00;;;21.42;29.13
59194;BME280;44967;48.598;15.650;2023-03-23T14:32:24;97625.19;;;21.39;27.73
59194;BME280;44967;48.598;15.650;2023-03-23T14:34:52;97629.25;;;21.34;29.57
59194;BME280;44967;48.598;15.650;2023-03-23T14:37:20;97632.38;;;21.18;29.25
59194;BME280;44967;48.598;15.650;2023-03-23T14:39:49;97628.97;;;21.16;28.09
59194;BME280;44967;48.598;15.650;2023-03-23T14:42:18;97632.91;;;21.01;29.83
59194;BME280;44967;48.598;15.650;2023-03-23T14:44:47;97627.16;;;20.94;28.91
59194;BME280;44967;48.598;15.650;2023-03-23T14:47:23;97633.66;;;20.92;28.88